Time;durP1;ratioP1;P1;durP2;ratioP2;P2;SDS_P1;SDS_P2;PMS_P1;PMS_P2;Temp;Humidity;BMP_temperature;BMP_pressure;BME280_temperature;BME280_humidity;BME280_pressure;Samples;Min_cycle;Max_cycle;Signal;HPM_P1;HPM_P2
2022/12/16 00:01:07;;;;;;;33.70;31.40;;;;;;;-0.01;100.00;101079.13;5095075;28;20441;-48
2022/12/16 00:03:35;;;;;;;32.90;31.00;;;;;;;-0.06;100.00;101089.09;5094991;28;20434;-50
2022/12/16 00:06:04;;;;;;;34.20;32.10;;;;;;;-0.03;100.00;101083.63;5094336;28;20540;-47
2022/12/16 00:08:33;;;;;;;34.60;32.30;;;;;;;-0.03;100.00;101078.38;5094955;28;20441;-48
2022/12/16 00:11:01;;;;;;;33.80;31.70;;;;;;;-0.02;100.00;101084.47;5095263;28;20444;-48
2022/12/16 00:13:32;;;;;;;33.60;31.60;;;;;;;-0.01;100.00;101091.38;5094733;28;20991;-48
2022/12/16 00:16:03;;;;;;;33.30;30.93;;;;;;;0.02;100.00;101092.91;5094042;28;20473;-47
2022/12/16 00:18:31;;;;;;;33.30;31.10;;;;;;;0.02;100.00;101091.13;5108147;28;20425;-51
2022/12/16 00:20:59;;;;;;;32.77;30.53;;;;;;;0.03;100.00;101094.59;5114897;28;20491;-52
2022/12/16 00:23:27;;;;;;;32.43;30.23;;;;;;;0.04;100.00;101098.88;5114788;28;20435;-47
2022/12/16 00:25:55;;;;;;;31.93;29.93;;;;;;;0.02;100.00;101104.25;5113981;27;20879;-51
2022/12/16 00:28:23;;;;;;;32.60;30.50;;;;;;;0.02;100.00;101096.38;5114965;28;20428;-49
2022/12/16 00:30:55;;;;;;;32.10;30.30;;;;;;;0.00;100.00;101098.31;5114885;28;20460;-50
2022/12/16 00:33:24;;;;;;;32.60;30.47;;;;;;;-0.02;100.00;101101.03;5114958;28;20940;-49
2022/12/16 00:35:53;;;;;;;30.87;28.97;;;;;;;-0.07;100.00;101102.34;5114126;27;20473;-48
2022/12/16 00:38:22;;;;;;;31.77;29.77;;;;;;;-0.04;100.00;101094.25;5114770;28;20470;-48
2022/12/16 00:40:50;;;;;;;31.40;29.60;;;;;;;-0.08;100.00;101098.88;5114805;28;20456;-49
2022/12/16 00:43:19;;;;;;;32.27;30.10;;;;;;;-0.04;100.00;101102.09;5114595;28;20428;-48
2022/12/16 00:45:47;;;;;;;31.63;29.60;;;;;;;-0.03;100.00;101103.78;5113751;27;20484;-52
2022/12/16 00:48:16;;;;;;;31.00;29.23;;;;;;;-0.01;100.00;101113.19;5114549;28;20473;-46
2022/12/16 00:50:46;;;;;;;31.60;29.70;;;;;;;0.01;100.00;101110.44;5114441;28;20464;-54
2022/12/16 00:53:14;;;;;;;30.80;28.93;;;;;;;0.02;100.00;101106.03;5114655;28;20428;-51
2022/12/16 00:55:41;;;;;;;28.90;27.37;;;;;;;0.00;100.00;101106.97;5113778;27;20473;-47
2022/12/16 00:58:09;;;;;;;30.83;29.00;;;;;;;0.02;100.00;101099.00;5114518;28;20433;-50
2022/12/16 01:00:37;;;;;;;29.43;27.50;;;;;;;0.03;100.00;101099.84;5114142;27;20456;-51
2022/12/16 01:03:05;;;;;;;30.77;29.07;;;;;;;0.00;100.00;101104.34;5114155;28;20440;-49
2022/12/16 01:05:37;;;;;;;32.67;29.53;;;;;;;0.02;100.00;101103.41;5113642;27;20496;-50
2022/12/16 01:08:05;;;;;;;31.00;29.20;;;;;;;0.04;100.00;101109.34;5114121;28;20989;-51
2022/12/16 01:10:32;;;;;;;32.37;30.47;;;;;;;0.04;100.00;101111.97;5113948;27;20456;-52
2022/12/16 01:13:00;;;;;;;31.80;30.00;;;;;;;0.04;100.00;101120.69;5113990;28;20432;-52
2022/12/16 01:15:27;;;;;;;32.00;29.97;;;;;;;0.05;100.00;101127.59;5113118;27;20464;-47
2022/12/16 01:17:55;;;;;;;33.67;31.50;;;;;;;0.06;100.00;101126.63;5113949;28;20425;-47
2022/12/16 01:20:23;;;;;;;31.63;29.63;;;;;;;0.09;100.00;101128.22;5103626;28;20453;-49
2022/12/16 01:22:51;;;;;;;33.30;31.30;;;;;;;0.12;100.00;101134.03;5093441;28;20434;-50
2022/12/16 01:25:21;;;;;;;33.07;30.97;;;;;;;0.12;100.00;101135.84;5092738;28;20489;-52
2022/12/16 01:27:49;;;;;;;32.57;30.73;;;;;;;0.16;100.00;101151.19;5093321;28;20426;-49
2022/12/16 01:30:17;;;;;;;32.17;30.23;;;;;;;0.16;100.00;101142.50;5093289;28;20506;-46
2022/12/16 01:32:44;;;;;;;32.10;30.10;;;;;;;0.17;100.00;101150.25;5093266;28;20429;-49
2022/12/16 01:35:12;;;;;;;31.20;29.50;;;;;;;0.16;100.00;101147.72;5092723;28;20461;-49
2022/12/16 01:38:01;;;;;;;32.00;30.07;;;;;;;0.17;100.00;101152.03;5092650;28;20522;-49
2022/12/16 01:40:29;;;;;;;31.90;29.87;;;;;;;0.20;100.00;101154.41;5092760;28;20855;-50
2022/12/16 01:42:57;;;;;;;32.33;30.23;;;;;;;0.19;100.00;101156.19;5093139;28;20459;-47
2022/12/16 01:45:31;;;;;;;33.93;31.30;;;;;;;0.19;100.00;101161.44;5092299;28;20461;-49
2022/12/16 01:48:03;;;;;;;31.50;29.63;;;;;;;0.21;100.00;101159.53;5092847;28;20425;-47
2022/12/16 01:50:31;;;;;;;30.83;28.90;;;;;;;0.21;100.00;101163.97;5092665;28;20472;-50
2022/12/16 01:53:05;;;;;;;31.37;29.47;;;;;;;0.19;100.00;101160.59;5092667;28;20434;-52
2022/12/16 01:55:37;;;;;;;31.03;28.73;;;;;;;0.19;100.00;101166.69;5092294;28;20465;-50
2022/12/16 01:58:09;;;;;;;30.47;28.80;;;;;;;0.18;100.00;101174.69;5092914;28;20461;-47
2022/12/16 02:00:38;;;;;;;32.10;29.57;;;;;;;0.20;100.00;101175.41;5092738;28;20988;-49
2022/12/16 02:03:06;;;;;;;32.67;30.57;;;;;;;0.18;100.00;101172.88;5092810;28;20484;-51
2022/12/16 02:05:38;;;;;;;32.13;30.33;;;;;;;0.16;100.00;101164.31;5091926;28;20519;-51
2022/12/16 02:08:12;;;;;;;33.70;31.60;;;;;;;0.19;100.00;101171.94;5092741;28;20430;-49
2022/12/16 02:10:54;;;;;;;32.27;30.37;;;;;;;0.20;100.00;101171.00;5092381;28;20472;-46
2022/12/16 02:13:33;;;;;;;31.93;29.93;;;;;;;0.22;100.00;101174.31;5092479;28;20421;-46
2022/12/16 02:16:08;;;;;;;32.77;30.67;;;;;;;0.25;100.00;101175.88;5091648;28;21017;-45
2022/12/16 02:18:50;;;;;;;32.00;29.80;;;;;;;0.26;100.00;101172.28;5107292;28;20519;-47
2022/12/16 02:21:30;;;;;;;32.07;30.20;;;;;;;0.28;100.00;101176.47;5113090;28;20419;-47
2022/12/16 02:24:35;;;;;;;34.40;32.20;;;;;;;0.27;100.00;101179.22;5112770;28;20510;-49
2022/12/16 02:27:45;;;;;;;29.60;27.80;;;;;;;0.24;100.00;101184.72;5112050;27;20464;-46
2022/12/16 02:30:42;;;;;;;30.30;28.53;;;;;;;0.22;100.00;101186.59;5112444;28;20460;-48
2022/12/16 02:33:23;;;;;;;30.00;28.27;;;;;;;0.15;100.00;101195.91;5112622;28;20428;-49
2022/12/16 02:35:57;;;;;;;31.70;29.63;;;;;;;0.12;100.00;101196.97;5112029;27;20464;-49
2022/12/16 02:38:30;;;;;;;31.97;30.03;;;;;;;0.09;100.00;101193.75;5112379;28;20479;-49
2022/12/16 02:41:02;;;;;;;31.40;29.67;;;;;;;0.04;100.00;101201.13;5112590;28;20443;-49
2022/12/16 02:43:50;;;;;;;33.27;30.90;;;;;;;0.02;100.00;101201.25;5112508;28;20435;-48
2022/12/16 02:46:23;;;;;;;33.13;30.77;;;;;;;0.06;100.00;101192.19;5111791;27;20514;-46
2022/12/16 02:48:51;;;;;;;33.13;31.03;;;;;;;0.09;100.00;101194.56;5111317;28;20831;-50
2022/12/16 02:51:20;;;;;;;34.90;32.60;;;;;;;0.10;100.00;101204.13;5112209;28;20433;-46
2022/12/16 02:53:50;;;;;;;33.13;30.97;;;;;;;0.10;100.00;101198.03;5112881;28;20420;-46
2022/12/16 02:56:30;;;;;;;34.33;32.30;;;;;;;0.10;100.00;101206.75;5111610;27;20468;-48
2022/12/16 02:59:08;;;;;;;35.13;32.83;;;;;;;0.10;100.00;101198.88;5112622;28;20444;-46
2022/12/16 03:01:41;;;;;;;32.83;30.83;;;;;;;0.10;100.00;101209.38;5112004;28;20531;-45
2022/12/16 03:04:14;;;;;;;34.60;32.27;;;;;;;0.14;100.00;101209.97;5112098;28;20432;-49
2022/12/16 03:06:48;;;;;;;32.93;30.70;;;;;;;0.14;100.00;101215.22;5111504;27;20453;-45
2022/12/16 03:09:21;;;;;;;33.67;31.47;;;;;;;0.15;100.00;101216.91;5112149;28;20448;-47
2022/12/16 03:11:51;;;;;;;32.00;29.77;;;;;;;0.15;100.00;101214.28;5112040;28;20436;-45
2022/12/16 03:14:21;;;;;;;30.40;28.63;;;;;;;0.18;100.00;101212.22;5111985;28;20478;-45
2022/12/16 03:16:51;;;;;;;33.23;30.87;;;;;;;0.17;100.00;101218.44;5111226;27;20483;-45
2022/12/16 03:19:21;;;;;;;32.17;30.07;;;;;;;0.17;100.00;101226.31;5112300;28;20805;-48
2022/12/16 03:21:54;;;;;;;32.63;30.60;;;;;;;0.11;100.00;101225.94;5112124;28;20515;-49
2022/12/16 03:24:23;;;;;;;32.93;30.87;;;;;;;0.10;100.00;101222.47;5111899;28;20838;-47
2022/12/16 03:26:56;;;;;;;31.73;29.63;;;;;;;0.13;100.00;101227.47;5111238;27;20453;-46
2022/12/16 03:29:29;;;;;;;31.57;29.57;;;;;;;0.15;100.00;101224.75;5112024;28;20445;-48
2022/12/16 03:32:02;;;;;;;33.17;31.07;;;;;;;0.13;100.00;101231.88;5111845;28;20947;-45
2022/12/16 03:34:34;;;;;;;32.20;30.30;;;;;;;0.11;100.00;101232.03;5112059;28;20482;-47
2022/12/16 03:37:05;;;;;;;31.17;29.47;;;;;;;0.08;100.00;101234.88;5111127;27;20525;-48
2022/12/16 03:39:35;;;;;;;31.47;29.70;;;;;;;0.07;100.00;101227.94;5111929;28;20444;-46
2022/12/16 03:42:04;;;;;;;30.80;29.10;;;;;;;0.04;100.00;101233.44;5112128;28;20432;-51
2022/12/16 03:44:32;;;;;;;31.20;29.30;;;;;;;0.03;100.00;101244.06;5111669;28;20936;-46
2022/12/16 03:47:01;;;;;;;29.50;28.00;;;;;;;0.02;100.00;101245.84;5111204;27;20460;-46
2022/12/16 03:49:28;;;;;;;30.47;28.23;;;;;;;-0.02;100.00;101249.63;5111772;28;20456;-48
2022/12/16 03:51:56;;;;;;;29.30;27.70;;;;;;;-0.04;100.00;101241.06;5111675;28;20954;-50
2022/12/16 03:54:24;;;;;;;29.30;27.50;;;;;;;-0.01;100.00;101246.91;5111850;28;20428;-46
2022/12/16 03:56:53;;;;;;;29.60;27.87;;;;;;;0.04;100.00;101248.31;5110909;27;20456;-50
2022/12/16 03:59:20;;;;;;;28.70;27.10;;;;;;;0.04;100.00;101259.66;5112441;28;20455;-46
2022/12/16 04:01:48;;;;;;;29.17;27.67;;;;;;;0.03;100.00;101260.59;5115303;28;20436;-46
2022/12/16 04:04:18;;;;;;;29.33;27.93;;;;;;;0.05;100.00;101255.25;5115391;28;20757;-45
2022/12/16 04:07:18;;;;;;;30.47;28.60;;;;;;;0.03;100.00;101257.97;5114947;27;20457;-47
2022/12/16 04:09:33;;;;;;;29.90;28.30;;;;;;;0.05;100.00;101263.97;5115098;28;20456;-49
2022/12/16 04:25:50;;;;;;;36.77;34.00;;;;;;;0.09;100.00;101264.56;5114430;27;20461;-46
2022/12/16 04:28:17;;;;;;;34.80;32.57;;;;;;;0.08;100.00;101270.75;5115181;28;20436;-48
2022/12/16 04:30:45;;;;;;;32.33;30.50;;;;;;;0.10;100.00;101268.84;5114894;27;20853;-46
